sensor_id;sensor_type;location;lat;lon;timestamp;P1;durP1;ratioP1;P2;durP2;ratioP2
34359;SDS011;20624;55.870;26.506;2024-02-23T00:02:07;12.60;;;6.28;;
34359;SDS011;20624;55.870;26.506;2024-02-23T00:04:35;10.63;;;5.45;;
34359;SDS011;20624;55.870;26.506;2024-02-23T00:07:05;14.93;;;7.60;;
34359;SDS011;20624;55.870;26.506;2024-02-23T00:09:33;7.75;;;4.05;;
34359;SDS011;20624;55.870;26.506;2024-02-23T00:12:04;14.35;;;6.47;;
34359;SDS011;20624;55.870;26.506;2024-02-23T00:14:32;13.85;;;5.72;;
34359;SDS011;20624;55.870;26.506;2024-02-23T00:17:03;14.23;;;7.22;;
34359;SDS011;20624;55.870;26.506;2024-02-23T00:19:31;9.70;;;6.00;;
34359;SDS011;20624;55.870;26.506;2024-02-23T00:21:58;8.85;;;5.50;;
34359;SDS011;20624;55.870;26.506;2024-02-23T00:24:26;11.32;;;6.07;;
34359;SDS011;20624;55.870;26.506;2024-02-23T00:26:54;11.20;;;6.30;;
34359;SDS011;20624;55.870;26.506;2024-02-23T00:29:22;12.10;;;5.43;;
34359;SDS011;20624;55.870;26.506;2024-02-23T00:31:50;17.67;;;8.20;;
34359;SDS011;20624;55.870;26.506;2024-02-23T00:34:17;13.43;;;6.43;;
34359;SDS011;20624;55.870;26.506;2024-02-23T00:36:45;9.38;;;5.85;;
34359;SDS011;20624;55.870;26.506;2024-02-23T00:39:13;11.40;;;6.97;;
34359;SDS011;20624;55.870;26.506;2024-02-23T00:41:40;10.93;;;6.30;;
34359;SDS011;20624;55.870;26.506;2024-02-23T00:44:08;11.70;;;6.65;;
34359;SDS011;20624;55.870;26.506;2024-02-23T00:46:36;10.52;;;5.68;;
34359;SDS011;20624;55.870;26.506;2024-02-23T00:49:05;10.55;;;5.05;;
34359;SDS011;20624;55.870;26.506;2024-02-23T00:51:33;7.68;;;4.55;;
34359;SDS011;20624;55.870;26.506;2024-02-23T00:54:00;8.20;;;5.22;;
34359;SDS011;20624;55.870;26.506;2024-02-23T00:56:28;8.65;;;5.40;;
34359;SDS011;20624;55.870;26.506;2024-02-23T00:59:10;10.07;;;4.57;;
34359;SDS011;20624;55.870;26.506;2024-02-23T01:01:38;8.45;;;5.07;;
34359;SDS011;20624;55.870;26.506;2024-02-23T01:04:06;10.38;;;5.70;;
34359;SDS011;20624;55.870;26.506;2024-02-23T01:06:34;10.02;;;5.18;;
34359;SDS011;20624;55.870;26.506;2024-02-23T01:09:02;10.40;;;6.03;;
34359;SDS011;20624;55.870;26.506;2024-02-23T01:11:31;8.23;;;5.47;;
34359;SDS011;20624;55.870;26.506;2024-02-23T01:13:59;8.70;;;4.90;;
34359;SDS011;20624;55.870;26.506;2024-02-23T01:16:27;10.63;;;6.35;;
34359;SDS011;20624;55.870;26.506;2024-02-23T01:18:55;11.30;;;6.38;;
34359;SDS011;20624;55.870;26.506;2024-02-23T01:21:23;10.38;;;6.45;;
34359;SDS011;20624;55.870;26.506;2024-02-23T01:23:51;10.38;;;5.78;;
34359;SDS011;20624;55.870;26.506;2024-02-23T01:26:18;12.63;;;7.05;;
34359;SDS011;20624;55.870;26.506;2024-02-23T01:28:46;11.02;;;5.90;;
34359;SDS011;20624;55.870;26.506;2024-02-23T01:31:14;11.23;;;6.00;;
34359;SDS011;20624;55.870;26.506;2024-02-23T01:33:42;10.70;;;6.15;;
34359;SDS011;20624;55.870;26.506;2024-02-23T01:36:10;6.20;;;3.70;;
34359;SDS011;20624;55.870;26.506;2024-02-23T01:38:38;12.65;;;7.00;;
34359;SDS011;20624;55.870;26.506;2024-02-23T01:41:09;11.45;;;6.47;;
34359;SDS011;20624;55.870;26.506;2024-02-23T01:43:38;11.60;;;5.10;;
34359;SDS011;20624;55.870;26.506;2024-02-23T01:46:06;11.23;;;5.68;;
34359;SDS011;20624;55.870;26.506;2024-02-23T01:48:34;11.45;;;6.55;;
34359;SDS011;20624;55.870;26.506;2024-02-23T01:51:02;10.77;;;6.10;;
34359;SDS011;20624;55.870;26.506;2024-02-23T01:53:30;10.02;;;6.63;;
34359;SDS011;20624;55.870;26.506;2024-02-23T01:55:58;9.18;;;5.47;;
34359;SDS011;20624;55.870;26.506;2024-02-23T01:58:27;9.70;;;6.15;;
34359;SDS011;20624;55.870;26.506;2024-02-23T02:00:55;7.60;;;4.10;;
34359;SDS011;20624;55.870;26.506;2024-02-23T02:03:22;14.45;;;7.35;;
34359;SDS011;20624;55.870;26.506;2024-02-23T02:05:50;12.68;;;6.20;;
34359;SDS011;20624;55.870;26.506;2024-02-23T02:08:19;12.20;;;7.18;;
34359;SDS011;20624;55.870;26.506;2024-02-23T02:10:46;9.48;;;6.18;;
34359;SDS011;20624;55.870;26.506;2024-02-23T02:13:16;11.20;;;5.50;;
34359;SDS011;20624;55.870;26.506;2024-02-23T02:15:44;7.78;;;5.65;;
34359;SDS011;20624;55.870;26.506;2024-02-23T02:18:12;10.52;;;6.70;;
34359;SDS011;20624;55.870;26.506;2024-02-23T02:20:40;8.65;;;5.80;;
34359;SDS011;20624;55.870;26.506;2024-02-23T02:23:21;11.30;;;5.97;;
34359;SDS011;20624;55.870;26.506;2024-02-23T02:25:55;10.95;;;6.68;;
34359;SDS011;20624;55.870;26.506;2024-02-23T02:28:24;8.27;;;5.03;;
34359;SDS011;20624;55.870;26.506;2024-02-23T02:30:52;11.43;;;7.35;;
34359;SDS011;20624;55.870;26.506;2024-02-23T02:33:20;11.80;;;6.72;;
34359;SDS011;20624;55.870;26.506;2024-02-23T02:35:48;8.05;;;5.05;;
34359;SDS011;20624;55.870;26.506;2024-02-23T02:38:16;10.27;;;5.72;;
34359;SDS011;20624;55.870;26.506;2024-02-23T02:40:44;9.45;;;5.70;;
34359;SDS011;20624;55.870;26.506;2024-02-23T02:43:12;9.05;;;5.22;;
34359;SDS011;20624;55.870;26.506;2024-02-23T02:45:40;9.30;;;5.70;;
34359;SDS011;20624;55.870;26.506;2024-02-23T02:48:08;7.97;;;4.57;;
34359;SDS011;20624;55.870;26.506;2024-02-23T02:50:36;10.02;;;5.55;;
34359;SDS011;20624;55.870;26.506;2024-02-23T02:53:04;9.30;;;5.43;;
34359;SDS011;20624;55.870;26.506;2024-02-23T02:55:32;12.25;;;4.97;;
34359;SDS011;20624;55.870;26.506;2024-02-23T02:57:59;8.90;;;5.32;;
34359;SDS011;20624;55.870;26.506;2024-02-23T03:00:28;11.77;;;4.72;;
34359;SDS011;20624;55.870;26.506;2024-02-23T03:02:57;9.25;;;4.95;;
34359;SDS011;20624;55.870;26.506;2024-02-23T03:05:25;9.82;;;5.70;;
34359;SDS011;20624;55.870;26.506;2024-02-23T03:07:53;7.03;;;3.83;;
34359;SDS011;20624;55.870;26.506;2024-02-23T03:10:21;9.10;;;6.05;;
34359;SDS011;20624;55.870;26.506;2024-02-23T03:12:49;7.82;;;4.53;;
34359;SDS011;20624;55.870;26.506;2024-02-23T03:15:17;12.50;;;5.30;;
34359;SDS011;20624;55.870;26.506;2024-02-23T03:17:45;10.38;;;6.30;;
34359;SDS011;20624;55.870;26.506;2024-02-23T03:20:13;10.35;;;5.50;;
34359;SDS011;20624;55.870;26.506;2024-02-23T03:22:40;8.65;;;4.70;;
34359;SDS011;20624;55.870;26.506;2024-02-23T03:25:08;9.65;;;6.43;;
34359;SDS011;20624;55.870;26.506;2024-02-23T03:27:36;11.80;;;5.95;;
34359;SDS011;20624;55.870;26.506;2024-02-23T03:30:04;8.27;;;4.93;;
34359;SDS011;20624;55.870;26.506;2024-02-23T03:32:34;10.70;;;5.47;;
34359;SDS011;20624;55.870;26.506;2024-02-23T03:35:03;8.57;;;4.80;;
34359;SDS011;20624;55.870;26.506;2024-02-23T03:37:32;6.43;;;3.75;;
34359;SDS011;20624;55.870;26.506;2024-02-23T03:40:00;10.05;;;4.95;;
34359;SDS011;20624;55.870;26.506;2024-02-23T03:42:28;12.27;;;7.30;;
34359;SDS011;20624;55.870;26.506;2024-02-23T03:44:56;7.57;;;4.07;;
34359;SDS011;20624;55.870;26.506;2024-02-23T03:47:24;10.10;;;5.90;;
34359;SDS011;20624;55.870;26.506;2024-02-23T03:49:52;10.88;;;5.85;;
34359;SDS011;20624;55.870;26.506;2024-02-23T03:52:20;10.48;;;6.22;;
34359;SDS011;20624;55.870;26.506;2024-02-23T03:54:48;11.80;;;6.57;;
34359;SDS011;20624;55.870;26.506;2024-02-23T03:57:16;13.05;;;4.88;;
34359;SDS011;20624;55.870;26.506;2024-02-23T03:59:53;11.40;;;5.70;;
34359;SDS011;20624;55.870;26.506;2024-02-23T04:02:21;10.07;;;5.80;;
34359;SDS011;20624;55.870;26.506;2024-02-23T04:04:49;8.43;;;4.80;;
34359;SDS011;20624;55.870;26.506;2024-02-23T04:07:17;10.50;;;5.88;;
34359;SDS011;20624;55.870;26.506;2024-02-23T04:09:46;9.45;;;4.82;;
34359;SDS011;20624;55.870;26.506;2024-02-23T04:12:21;10.32;;;5.55;;
34359;SDS011;20624;55.870;26.506;2024-02-23T04:14:49;11.00;;;5.88;;
34359;SDS011;20624;55.870;26.506;2024-02-23T04:17:17;7.18;;;4.15;;
34359;SDS011;20624;55.870;26.506;2024-02-23T04:19:45;12.40;;;5.65;;
34359;SDS011;20624;55.870;26.506;2024-02-23T04:22:13;11.63;;;6.07;;
34359;SDS011;20624;55.870;26.506;2024-02-23T04:24:41;11.20;;;5.68;;
34359;SDS011;20624;55.870;26.506;2024-02-23T04:27:09;11.80;;;5.45;;
34359;SDS011;20624;55.870;26.506;2024-02-23T04:29:37;13.60;;;5.15;;
34359;SDS011;20624;55.870;26.506;2024-02-23T04:32:05;15.88;;;6.22;;
34359;SDS011;20624;55.870;26.506;2024-02-23T04:34:33;12.63;;;5.47;;
34359;SDS011;20624;55.870;26.506;2024-02-23T04:37:01;10.70;;;5.13;;
34359;SDS011;20624;55.870;26.506;2024-02-23T04:39:28;14.05;;;6.65;;
34359;SDS011;20624;55.870;26.506;2024-02-23T04:41:56;12.48;;;6.10;;
34359;SDS011;20624;55.870;26.506;2024-02-23T04:44:24;8.82;;;4.80;;
34359;SDS011;20624;55.870;26.506;2024-02-23T04:46:52;14.48;;;5.95;;
34359;SDS011;20624;55.870;26.506;2024-02-23T04:49:20;13.80;;;5.60;;
34359;SDS011;20624;55.870;26.506;2024-02-23T04:51:48;12.98;;;5.72;;
34359;SDS011;20624;55.870;26.506;2024-02-23T04:54:15;12.25;;;5.45;;
34359;SDS011;20624;55.870;26.506;2024-02-23T04:56:44;12.88;;;5.88;;
34359;SDS011;20624;55.870;26.506;2024-02-23T04:59:12;15.75;;;6.05;;
34359;SDS011;20624;55.870;26.506;2024-02-23T05:01:39;11.40;;;5.22;;
34359;SDS011;20624;55.870;26.506;2024-02-23T05:04:07;7.57;;;4.25;;
34359;SDS011;20624;55.870;26.506;2024-02-23T05:06:35;9.70;;;4.97;;
34359;SDS011;20624;55.870;26.506;2024-02-23T05:09:03;8.60;;;4.28;;
34359;SDS011;20624;55.870;26.506;2024-02-23T05:11:33;14.18;;;5.90;;
34359;SDS011;20624;55.870;26.506;2024-02-23T05:14:01;9.23;;;4.50;;
34359;SDS011;20624;55.870;26.506;2024-02-23T05:16:29;17.50;;;6.55;;
34359;SDS011;20624;55.870;26.506;2024-02-23T05:18:56;8.50;;;4.05;;
34359;SDS011;20624;55.870;26.506;2024-02-23T05:21:24;10.00;;;4.88;;
34359;SDS011;20624;55.870;26.506;2024-02-23T05:23:52;14.52;;;6.25;;
34359;SDS011;20624;55.870;26.506;2024-02-23T05:26:20;11.25;;;5.28;;
34359;SDS011;20624;55.870;26.506;2024-02-23T05:28:48;13.77;;;5.03;;
34359;SDS011;20624;55.870;26.506;2024-02-23T05:31:16;11.60;;;6.20;;
34359;SDS011;20624;55.870;26.506;2024-02-23T05:33:44;10.73;;;4.25;;
34359;SDS011;20624;55.870;26.506;2024-02-23T05:36:15;10.80;;;4.13;;
34359;SDS011;20624;55.870;26.506;2024-02-23T05:38:42;22.17;;;7.07;;
34359;SDS011;20624;55.870;26.506;2024-02-23T05:41:12;12.82;;;6.93;;
34359;SDS011;20624;55.870;26.506;2024-02-23T05:43:40;17.63;;;6.20;;
34359;SDS011;20624;55.870;26.506;2024-02-23T05:46:08;27.90;;;7.65;;
34359;SDS011;20624;55.870;26.506;2024-02-23T05:48:36;16.75;;;5.97;;
34359;SDS011;20624;55.870;26.506;2024-02-23T05:51:04;18.10;;;6.85;;
34359;SDS011;20624;55.870;26.506;2024-02-23T05:53:32;18.75;;;7.07;;
34359;SDS011;20624;55.870;26.506;2024-02-23T05:56:01;43.95;;;10.93;;
34359;SDS011;20624;55.870;26.506;2024-02-23T05:58:30;40.80;;;10.10;;
34359;SDS011;20624;55.870;26.506;2024-02-23T06:00:58;47.20;;;10.95;;
34359;SDS011;20624;55.870;26.506;2024-02-23T06:03:25;47.00;;;10.75;;
34359;SDS011;20624;55.870;26.506;2024-02-23T06:05:53;47.88;;;10.88;;
34359;SDS011;20624;55.870;26.506;2024-02-23T06:08:21;20.55;;;5.85;;
34359;SDS011;20624;55.870;26.506;2024-02-23T06:10:49;27.52;;;7.22;;
34359;SDS011;20624;55.870;26.506;2024-02-23T06:13:17;44.42;;;10.75;;
34359;SDS011;20624;55.870;26.506;2024-02-23T06:15:46;23.60;;;6.80;;
34359;SDS011;20624;55.870;26.506;2024-02-23T06:18:13;18.90;;;6.10;;
34359;SDS011;20624;55.870;26.506;2024-02-23T06:20:41;35.38;;;8.98;;
34359;SDS011;20624;55.870;26.506;2024-02-23T06:23:09;58.95;;;12.55;;
34359;SDS011;20624;55.870;26.506;2024-02-23T06:25:37;19.20;;;6.13;;
34359;SDS011;20624;55.870;26.506;2024-02-23T06:28:05;24.98;;;6.78;;
34359;SDS011;20624;55.870;26.506;2024-02-23T06:30:33;37.03;;;8.55;;
34359;SDS011;20624;55.870;26.506;2024-02-23T06:33:01;41.10;;;9.75;;
34359;SDS011;20624;55.870;26.506;2024-02-23T06:35:31;43.13;;;9.65;;
34359;SDS011;20624;55.870;26.506;2024-02-23T06:37:59;27.35;;;7.18;;
34359;SDS011;20624;55.870;26.506;2024-02-23T06:40:27;28.00;;;7.65;;
34359;SDS011;20624;55.870;26.506;2024-02-23T06:43:11;34.35;;;9.38;;
34359;SDS011;20624;55.870;26.506;2024-02-23T06:45:39;24.58;;;7.05;;
34359;SDS011;20624;55.870;26.506;2024-02-23T06:48:07;48.35;;;10.35;;
34359;SDS011;20624;55.870;26.506;2024-02-23T06:50:36;52.53;;;11.82;;
34359;SDS011;20624;55.870;26.506;2024-02-23T06:53:04;41.67;;;10.10;;
34359;SDS011;20624;55.870;26.506;2024-02-23T06:55:34;49.05;;;10.77;;
34359;SDS011;20624;55.870;26.506;2024-02-23T06:58:02;41.05;;;10.52;;
34359;SDS011;20624;55.870;26.506;2024-02-23T07:00:33;44.08;;;10.57;;
34359;SDS011;20624;55.870;26.506;2024-02-23T07:03:02;54.35;;;11.93;;
34359;SDS011;20624;55.870;26.506;2024-02-23T07:05:30;48.95;;;9.93;;
34359;SDS011;20624;55.870;26.506;2024-02-23T07:07:59;53.53;;;11.13;;
34359;SDS011;20624;55.870;26.506;2024-02-23T07:10:28;27.60;;;6.85;;
34359;SDS011;20624;55.870;26.506;2024-02-23T07:12:56;29.83;;;7.13;;
34359;SDS011;20624;55.870;26.506;2024-02-23T07:15:24;48.63;;;11.85;;
34359;SDS011;20624;55.870;26.506;2024-02-23T07:17:52;36.95;;;9.05;;
34359;SDS011;20624;55.870;26.506;2024-02-23T07:20:20;33.40;;;8.25;;
34359;SDS011;20624;55.870;26.506;2024-02-23T07:22:48;58.92;;;13.13;;
34359;SDS011;20624;55.870;26.506;2024-02-23T07:25:19;40.13;;;10.10;;
34359;SDS011;20624;55.870;26.506;2024-02-23T07:27:47;37.17;;;9.68;;
34359;SDS011;20624;55.870;26.506;2024-02-23T07:30:15;29.55;;;7.90;;
34359;SDS011;20624;55.870;26.506;2024-02-23T07:32:43;33.47;;;9.40;;
34359;SDS011;20624;55.870;26.506;2024-02-23T07:35:18;28.52;;;8.60;;
34359;SDS011;20624;55.870;26.506;2024-02-23T07:37:46;15.60;;;5.90;;
34359;SDS011;20624;55.870;26.506;2024-02-23T07:40:14;25.08;;;7.57;;
34359;SDS011;20624;55.870;26.506;2024-02-23T07:42:46;24.90;;;6.70;;
34359;SDS011;20624;55.870;26.506;2024-02-23T07:45:14;19.05;;;5.65;;
34359;SDS011;20624;55.870;26.506;2024-02-23T07:47:42;26.15;;;6.93;;
34359;SDS011;20624;55.870;26.506;2024-02-23T07:50:11;27.73;;;8.02;;
34359;SDS011;20624;55.870;26.506;2024-02-23T07:52:39;25.02;;;6.82;;
34359;SDS011;20624;55.870;26.506;2024-02-23T07:55:07;22.20;;;6.85;;
34359;SDS011;20624;55.870;26.506;2024-02-23T07:57:35;24.63;;;7.65;;
34359;SDS011;20624;55.870;26.506;2024-02-23T08:00:04;28.25;;;7.72;;
34359;SDS011;20624;55.870;26.506;2024-02-23T08:02:33;29.98;;;8.23;;
34359;SDS011;20624;55.870;26.506;2024-02-23T08:05:02;25.58;;;7.70;;
34359;SDS011;20624;55.870;26.506;2024-02-23T08:07:30;27.50;;;7.35;;
34359;SDS011;20624;55.870;26.506;2024-02-23T08:09:58;26.58;;;8.25;;
34359;SDS011;20624;55.870;26.506;2024-02-23T08:12:27;25.63;;;8.15;;
34359;SDS011;20624;55.870;26.506;2024-02-23T08:14:55;36.40;;;9.30;;
34359;SDS011;20624;55.870;26.506;2024-02-23T08:17:22;19.17;;;6.70;;
34359;SDS011;20624;55.870;26.506;2024-02-23T08:19:52;26.45;;;7.95;;
34359;SDS011;20624;55.870;26.506;2024-02-23T08:22:20;25.73;;;7.13;;
34359;SDS011;20624;55.870;26.506;2024-02-23T08:24:49;23.52;;;7.65;;
34359;SDS011;20624;55.870;26.506;2024-02-23T08:27:17;25.33;;;7.45;;
34359;SDS011;20624;55.870;26.506;2024-02-23T08:29:45;29.48;;;8.05;;
34359;SDS011;20624;55.870;26.506;2024-02-23T08:32:13;18.33;;;6.90;;
34359;SDS011;20624;55.870;26.506;2024-02-23T08:34:41;30.13;;;8.43;;
34359;SDS011;20624;55.870;26.506;2024-02-23T08:37:09;19.15;;;5.68;;
34359;SDS011;20624;55.870;26.506;2024-02-23T08:39:36;37.10;;;9.50;;
34359;SDS011;20624;55.870;26.506;2024-02-23T08:42:04;22.65;;;7.30;;
34359;SDS011;20624;55.870;26.506;2024-02-23T08:44:32;30.88;;;7.80;;
34359;SDS011;20624;55.870;26.506;2024-02-23T08:47:00;18.35;;;6.93;;
34359;SDS011;20624;55.870;26.506;2024-02-23T08:49:29;40.15;;;10.27;;
34359;SDS011;20624;55.870;26.506;2024-02-23T08:51:57;15.90;;;5.57;;
34359;SDS011;20624;55.870;26.506;2024-02-23T08:54:25;26.92;;;7.38;;
34359;SDS011;20624;55.870;26.506;2024-02-23T08:56:53;30.38;;;8.10;;
34359;SDS011;20624;55.870;26.506;2024-02-23T08:59:20;22.85;;;6.50;;
34359;SDS011;20624;55.870;26.506;2024-02-23T09:01:48;26.90;;;7.50;;
34359;SDS011;20624;55.870;26.506;2024-02-23T09:04:17;32.35;;;8.40;;
34359;SDS011;20624;55.870;26.506;2024-02-23T09:06:45;36.00;;;8.60;;
34359;SDS011;20624;55.870;26.506;2024-02-23T09:09:13;28.10;;;8.48;;
34359;SDS011;20624;55.870;26.506;2024-02-23T09:11:43;32.83;;;8.90;;
34359;SDS011;20624;55.870;26.506;2024-02-23T09:14:11;38.67;;;10.32;;
34359;SDS011;20624;55.870;26.506;2024-02-23T09:16:40;25.90;;;8.18;;
34359;SDS011;20624;55.870;26.506;2024-02-23T09:19:22;36.08;;;9.98;;
34359;SDS011;20624;55.870;26.506;2024-02-23T09:22:00;29.05;;;8.25;;
34359;SDS011;20624;55.870;26.506;2024-02-23T09:24:42;40.28;;;10.43;;
34359;SDS011;20624;55.870;26.506;2024-02-23T09:27:20;24.23;;;7.63;;
34359;SDS011;20624;55.870;26.506;2024-02-23T09:29:58;25.95;;;8.50;;
34359;SDS011;20624;55.870;26.506;2024-02-23T09:32:35;41.83;;;10.43;;
34359;SDS011;20624;55.870;26.506;2024-02-23T09:35:20;38.20;;;9.73;;
34359;SDS011;20624;55.870;26.506;2024-02-23T09:37:55;29.55;;;7.78;;
34359;SDS011;20624;55.870;26.506;2024-02-23T09:40:34;30.08;;;7.35;;
34359;SDS011;20624;55.870;26.506;2024-02-23T09:43:14;25.33;;;7.72;;
34359;SDS011;20624;55.870;26.506;2024-02-23T09:45:55;37.40;;;9.98;;
34359;SDS011;20624;55.870;26.506;2024-02-23T09:48:39;48.10;;;11.57;;
34359;SDS011;20624;55.870;26.506;2024-02-23T09:51:15;44.88;;;11.20;;
34359;SDS011;20624;55.870;26.506;2024-02-23T09:53:52;34.67;;;8.73;;
34359;SDS011;20624;55.870;26.506;2024-02-23T09:56:30;51.17;;;12.10;;
34359;SDS011;20624;55.870;26.506;2024-02-23T09:59:06;31.67;;;8.63;;
34359;SDS011;20624;55.870;26.506;2024-02-23T10:01:52;33.70;;;9.52;;
34359;SDS011;20624;55.870;26.506;2024-02-23T10:04:26;34.08;;;8.70;;
34359;SDS011;20624;55.870;26.506;2024-02-23T10:07:07;37.75;;;10.27;;
34359;SDS011;20624;55.870;26.506;2024-02-23T10:09:48;25.40;;;8.30;;
34359;SDS011;20624;55.870;26.506;2024-02-23T10:12:25;20.10;;;7.50;;
34359;SDS011;20624;55.870;26.506;2024-02-23T10:15:03;33.60;;;10.30;;
34359;SDS011;20624;55.870;26.506;2024-02-23T10:17:39;20.90;;;7.55;;
34359;SDS011;20624;55.870;26.506;2024-02-23T10:20:21;27.45;;;9.75;;
34359;SDS011;20624;55.870;26.506;2024-02-23T10:22:59;21.95;;;7.88;;
34359;SDS011;20624;55.870;26.506;2024-02-23T10:25:38;26.58;;;8.55;;
34359;SDS011;20624;55.870;26.506;2024-02-23T10:28:15;35.50;;;10.45;;
34359;SDS011;20624;55.870;26.506;2024-02-23T10:30:43;38.97;;;9.82;;
34359;SDS011;20624;55.870;26.506;2024-02-23T10:33:10;51.45;;;14.02;;
34359;SDS011;20624;55.870;26.506;2024-02-23T10:35:40;26.52;;;10.38;;
34359;SDS011;20624;55.870;26.506;2024-02-23T10:38:09;29.45;;;9.52;;
34359;SDS011;20624;55.870;26.506;2024-02-23T10:40:40;22.80;;;7.05;;
34359;SDS011;20624;55.870;26.506;2024-02-23T10:43:16;40.42;;;10.20;;
34359;SDS011;20624;55.870;26.506;2024-02-23T10:45:44;27.92;;;9.10;;
34359;SDS011;20624;55.870;26.506;2024-02-23T10:48:12;30.13;;;9.70;;
34359;SDS011;20624;55.870;26.506;2024-02-23T10:50:41;30.33;;;9.23;;
34359;SDS011;20624;55.870;26.506;2024-02-23T10:53:10;26.52;;;8.88;;
34359;SDS011;20624;55.870;26.506;2024-02-23T10:55:39;25.13;;;9.10;;
34359;SDS011;20624;55.870;26.506;2024-02-23T10:58:10;21.85;;;8.88;;
34359;SDS011;20624;55.870;26.506;2024-02-23T11:00:39;29.08;;;9.40;;
34359;SDS011;20624;55.870;26.506;2024-02-23T11:03:09;39.38;;;12.40;;
34359;SDS011;20624;55.870;26.506;2024-02-23T11:05:37;43.67;;;13.48;;
34359;SDS011;20624;55.870;26.506;2024-02-23T11:08:05;28.40;;;9.35;;
34359;SDS011;20624;55.870;26.506;2024-02-23T11:10:43;33.92;;;9.57;;
34359;SDS011;20624;55.870;26.506;2024-02-23T11:13:30;27.02;;;9.00;;
34359;SDS011;20624;55.870;26.506;2024-02-23T11:16:01;33.22;;;11.93;;
34359;SDS011;20624;55.870;26.506;2024-02-23T11:18:29;27.27;;;9.48;;
34359;SDS011;20624;55.870;26.506;2024-02-23T11:21:01;34.83;;;10.82;;
34359;SDS011;20624;55.870;26.506;2024-02-23T11:23:42;26.77;;;9.20;;
34359;SDS011;20624;55.870;26.506;2024-02-23T11:26:11;29.73;;;9.38;;
34359;SDS011;20624;55.870;26.506;2024-02-23T11:28:49;25.42;;;8.50;;
34359;SDS011;20624;55.870;26.506;2024-02-23T11:31:20;26.65;;;9.52;;
34359;SDS011;20624;55.870;26.506;2024-02-23T11:33:52;37.42;;;12.18;;
34359;SDS011;20624;55.870;26.506;2024-02-23T11:36:23;24.08;;;9.15;;
34359;SDS011;20624;55.870;26.506;2024-02-23T11:38:54;21.40;;;7.88;;
34359;SDS011;20624;55.870;26.506;2024-02-23T11:41:24;27.58;;;10.00;;
34359;SDS011;20624;55.870;26.506;2024-02-23T11:43:52;39.67;;;12.23;;
34359;SDS011;20624;55.870;26.506;2024-02-23T11:46:22;27.95;;;10.55;;
34359;SDS011;20624;55.870;26.506;2024-02-23T11:48:50;34.38;;;11.40;;
34359;SDS011;20624;55.870;26.506;2024-02-23T11:51:22;30.55;;;10.90;;
34359;SDS011;20624;55.870;26.506;2024-02-23T11:53:50;37.88;;;11.90;;
34359;SDS011;20624;55.870;26.506;2024-02-23T11:56:19;52.95;;;14.20;;
34359;SDS011;20624;55.870;26.506;2024-02-23T11:58:47;42.63;;;12.77;;
34359;SDS011;20624;55.870;26.506;2024-02-23T12:01:14;37.75;;;11.52;;
34359;SDS011;20624;55.870;26.506;2024-02-23T12:03:43;29.85;;;9.93;;
34359;SDS011;20624;55.870;26.506;2024-02-23T12:06:11;25.55;;;7.65;;
34359;SDS011;20624;55.870;26.506;2024-02-23T12:08:39;31.17;;;11.23;;
34359;SDS011;20624;55.870;26.506;2024-02-23T12:11:08;31.10;;;7.97;;
34359;SDS011;20624;55.870;26.506;2024-02-23T12:13:38;44.10;;;11.32;;
34359;SDS011;20624;55.870;26.506;2024-02-23T12:16:08;32.78;;;11.15;;
34359;SDS011;20624;55.870;26.506;2024-02-23T12:18:36;27.25;;;10.45;;
34359;SDS011;20624;55.870;26.506;2024-02-23T12:21:05;30.73;;;9.27;;
34359;SDS011;20624;55.870;26.506;2024-02-23T12:26:07;27.92;;;9.85;;
34359;SDS011;20624;55.870;26.506;2024-02-23T12:28:36;28.60;;;10.55;;
34359;SDS011;20624;55.870;26.506;2024-02-23T12:31:04;35.78;;;11.95;;
34359;SDS011;20624;55.870;26.506;2024-02-23T12:33:32;25.92;;;8.45;;
34359;SDS011;20624;55.870;26.506;2024-02-23T12:36:07;26.92;;;9.45;;
34359;SDS011;20624;55.870;26.506;2024-02-23T12:38:35;24.27;;;9.52;;
34359;SDS011;20624;55.870;26.506;2024-02-23T12:41:04;30.20;;;12.02;;
34359;SDS011;20624;55.870;26.506;2024-02-23T12:43:32;21.17;;;8.73;;
34359;SDS011;20624;55.870;26.506;2024-02-23T12:45:59;22.77;;;9.45;;
34359;SDS011;20624;55.870;26.506;2024-02-23T12:50:57;25.90;;;10.80;;
34359;SDS011;20624;55.870;26.506;2024-02-23T12:53:32;32.13;;;10.60;;
34359;SDS011;20624;55.870;26.506;2024-02-23T12:56:04;32.85;;;9.85;;
34359;SDS011;20624;55.870;26.506;2024-02-23T12:58:36;25.92;;;10.00;;
34359;SDS011;20624;55.870;26.506;2024-02-23T13:03:43;30.10;;;10.18;;
34359;SDS011;20624;55.870;26.506;2024-02-23T13:06:11;36.10;;;13.50;;
34359;SDS011;20624;55.870;26.506;2024-02-23T13:08:48;29.48;;;10.43;;
34359;SDS011;20624;55.870;26.506;2024-02-23T13:11:35;26.65;;;9.55;;
34359;SDS011;20624;55.870;26.506;2024-02-23T13:14:13;23.27;;;9.80;;
34359;SDS011;20624;55.870;26.506;2024-02-23T13:16:42;31.83;;;11.35;;
34359;SDS011;20624;55.870;26.506;2024-02-23T13:19:11;21.90;;;9.23;;
34359;SDS011;20624;55.870;26.506;2024-02-23T13:21:39;22.55;;;10.25;;
34359;SDS011;20624;55.870;26.506;2024-02-23T13:24:06;45.90;;;14.13;;
34359;SDS011;20624;55.870;26.506;2024-02-23T13:26:35;20.65;;;9.18;;
34359;SDS011;20624;55.870;26.506;2024-02-23T13:29:03;23.70;;;7.57;;
34359;SDS011;20624;55.870;26.506;2024-02-23T13:31:30;25.25;;;9.77;;
34359;SDS011;20624;55.870;26.506;2024-02-23T13:33:58;31.27;;;12.25;;
34359;SDS011;20624;55.870;26.506;2024-02-23T13:36:27;31.33;;;11.73;;
34359;SDS011;20624;55.870;26.506;2024-02-23T13:38:54;28.55;;;10.30;;
34359;SDS011;20624;55.870;26.506;2024-02-23T13:41:26;26.38;;;10.20;;
34359;SDS011;20624;55.870;26.506;2024-02-23T13:43:53;23.70;;;10.52;;
34359;SDS011;20624;55.870;26.506;2024-02-23T13:46:21;29.00;;;11.25;;
34359;SDS011;20624;55.870;26.506;2024-02-23T13:49:01;30.52;;;10.90;;
34359;SDS011;20624;55.870;26.506;2024-02-23T13:51:29;30.00;;;11.77;;
34359;SDS011;20624;55.870;26.506;2024-02-23T13:53:57;25.05;;;9.98;;
34359;SDS011;20624;55.870;26.506;2024-02-23T13:56:25;23.52;;;10.18;;
34359;SDS011;20624;55.870;26.506;2024-02-23T13:58:54;16.25;;;4.90;;
34359;SDS011;20624;55.870;26.506;2024-02-23T14:01:21;25.25;;;10.93;;
34359;SDS011;20624;55.870;26.506;2024-02-23T14:03:49;23.00;;;10.13;;
34359;SDS011;20624;55.870;26.506;2024-02-23T14:06:17;25.00;;;10.02;;
34359;SDS011;20624;55.870;26.506;2024-02-23T14:08:45;21.40;;;10.75;;
34359;SDS011;20624;55.870;26.506;2024-02-23T14:11:14;24.98;;;11.68;;
34359;SDS011;20624;55.870;26.506;2024-02-23T14:13:42;20.80;;;8.35;;
34359;SDS011;20624;55.870;26.506;2024-02-23T14:16:16;27.70;;;11.10;;
34359;SDS011;20624;55.870;26.506;2024-02-23T14:18:52;27.40;;;12.45;;
34359;SDS011;20624;55.870;26.506;2024-02-23T14:21:30;27.98;;;12.35;;
34359;SDS011;20624;55.870;26.506;2024-02-23T14:24:02;22.08;;;10.15;;
34359;SDS011;20624;55.870;26.506;2024-02-23T14:26:30;28.23;;;12.13;;
34359;SDS011;20624;55.870;26.506;2024-02-23T14:28:58;21.92;;;11.20;;
34359;SDS011;20624;55.870;26.506;2024-02-23T14:31:26;28.10;;;12.90;;
34359;SDS011;20624;55.870;26.506;2024-02-23T14:33:54;25.38;;;13.02;;
34359;SDS011;20624;55.870;26.506;2024-02-23T14:36:22;36.10;;;15.18;;
34359;SDS011;20624;55.870;26.506;2024-02-23T14:38:50;28.90;;;11.60;;
34359;SDS011;20624;55.870;26.506;2024-02-23T14:41:18;24.73;;;11.45;;
34359;SDS011;20624;55.870;26.506;2024-02-23T14:43:46;27.70;;;11.98;;